createdAt,value
2019-02-20T00:00:24.518Z,101558.89
2019-02-20T00:02:53.860Z,101565.23
2019-02-20T00:05:22.906Z,101562.27
2019-02-20T00:07:52.190Z,101568.61
2019-02-20T00:10:21.247Z,101568.18
2019-02-20T00:12:50.625Z,101575.78
2019-02-20T00:15:19.674Z,101581.70
2019-02-20T00:17:48.753Z,101582.13
2019-02-20T00:20:17.813Z,101582.55
2019-02-20T00:22:46.827Z,101574.09
2019-02-20T00:25:15.884Z,101578.32
2019-02-20T00:27:44.826Z,101575.79
2019-02-20T00:30:13.979Z,101566.91
2019-02-20T00:32:43.052Z,101580.02
2019-02-20T00:35:12.152Z,101578.33
2019-02-20T00:37:41.093Z,101585.94
2019-02-20T00:40:10.118Z,101586.36
2019-02-20T00:42:39.211Z,101584.23
2019-02-20T00:45:28.394Z,101585.09
2019-02-20T00:48:14.988Z,101582.55
2019-02-20T00:50:44.739Z,101593.95
2019-02-20T00:53:18.906Z,101595.23
2019-02-20T00:55:48.034Z,101599.03
2019-02-20T00:58:16.973Z,101600.30
2019-02-20T01:00:46.055Z,101606.64
2019-02-20T01:03:14.926Z,101623.97
2019-02-20T01:05:43.942Z,101618.05
2019-02-20T01:08:13.009Z,101622.69
2019-02-20T01:10:42.377Z,101615.09
2019-02-20T01:13:11.466Z,101617.20
2019-02-20T01:15:40.475Z,101615.51
2019-02-20T01:18:09.506Z,101614.23
2019-02-20T01:20:38.565Z,101620.58
2019-02-20T01:23:07.799Z,101615.08
2019-02-20T01:25:36.854Z,101623.96
2019-02-20T01:28:06.109Z,101630.73
2019-02-20T01:30:35.123Z,101622.69
2019-02-20T01:33:04.099Z,101611.28
2019-02-20T01:35:33.033Z,101614.66
2019-02-20T01:38:02.009Z,101621.01
2019-02-20T01:40:31.094Z,101612.98
2019-02-20T01:43:00.118Z,101610.44
2019-02-20T01:45:29.128Z,101608.75
2019-02-20T01:47:58.896Z,101607.06
2019-02-20T01:50:27.829Z,101604.95
2019-02-20T01:52:56.844Z,101609.59
2019-02-20T01:55:25.897Z,101613.82
2019-02-20T01:57:54.970Z,101612.98
2019-02-20T02:00:23.982Z,101616.36
2019-02-20T02:02:53.002Z,101621.86
2019-02-20T02:05:22.013Z,101615.52
2019-02-20T02:07:51.030Z,101615.52
2019-02-20T02:10:20.396Z,101623.13
2019-02-20T02:12:49.454Z,101617.20
2019-02-20T02:15:20.787Z,101619.74
2019-02-20T02:17:49.945Z,101621.43
2019-02-20T02:20:18.965Z,101620.59
2019-02-20T02:22:47.947Z,101618.47
2019-02-20T02:25:16.963Z,101618.89
2019-02-20T02:27:46.013Z,101617.63
2019-02-20T02:30:15.227Z,101632.00
2019-02-20T02:32:44.307Z,101636.65
2019-02-20T02:35:13.325Z,101631.58
2019-02-20T02:37:42.335Z,101629.89
2019-02-20T02:40:11.397Z,101634.11
2019-02-20T02:42:40.410Z,101634.53
2019-02-20T02:45:09.424Z,101626.50
2019-02-20T02:47:38.782Z,101628.62
2019-02-20T02:50:08.188Z,101632.42
2019-02-20T02:52:37.202Z,101627.34
2019-02-20T02:55:06.310Z,101623.13
2019-02-20T02:57:35.353Z,101627.34
2019-02-20T03:00:04.827Z,101623.97
2019-02-20T03:02:33.888Z,101618.48
2019-02-20T03:05:02.942Z,101624.81
2019-02-20T03:07:31.968Z,101618.47
2019-02-20T03:10:00.967Z,101623.13
2019-02-20T03:12:30.202Z,101629.03
2019-02-20T03:14:59.217Z,101632.84
2019-02-20T03:17:28.239Z,101634.95
2019-02-20T03:19:57.636Z,101631.57
2019-02-20T03:22:26.684Z,101636.64
2019-02-20T03:24:55.739Z,101637.06
2019-02-20T03:27:24.811Z,101636.22
2019-02-20T03:29:53.824Z,101641.72
2019-02-20T03:32:22.758Z,101637.91
2019-02-20T03:34:51.810Z,101638.34
2019-02-20T03:37:20.836Z,101639.61
2019-02-20T03:39:50.111Z,101645.09
2019-02-20T03:42:19.189Z,101641.72
2019-02-20T03:44:48.189Z,101645.94
2019-02-20T03:47:17.244Z,101654.82
2019-02-20T03:49:46.265Z,101652.70
2019-02-20T03:52:15.322Z,101647.64
2019-02-20T03:54:44.793Z,101645.09
2019-02-20T03:57:13.789Z,101657.36
2019-02-20T03:59:42.896Z,101646.80
2019-02-20T04:02:11.910Z,101651.44
2019-02-20T04:04:40.966Z,101652.28
2019-02-20T04:07:10.279Z,101656.52
2019-02-20T04:09:39.334Z,101656.51
2019-02-20T04:12:08.409Z,101656.09
2019-02-20T04:14:37.489Z,101656.94
2019-02-20T04:17:06.493Z,101654.81
2019-02-20T04:19:35.511Z,101659.89
2019-02-20T04:22:04.786Z,101656.94
2019-02-20T04:24:33.758Z,101651.86
2019-02-20T04:27:02.700Z,101654.39
2019-02-20T04:29:31.756Z,101652.70
2019-02-20T04:32:00.773Z,101654.39
2019-02-20T04:34:29.773Z,101659.88
2019-02-20T04:36:58.730Z,101664.53
2019-02-20T04:39:27.746Z,101666.22
2019-02-20T04:41:57.101Z,101667.48
2019-02-20T04:44:26.116Z,101670.87
2019-02-20T04:46:55.490Z,101669.17
2019-02-20T04:49:24.498Z,101669.59
2019-02-20T04:51:53.893Z,101674.67
2019-02-20T04:54:22.950Z,101673.40
2019-02-20T04:56:51.974Z,101671.72
2019-02-20T04:59:20.946Z,101680.58
2019-02-20T05:01:49.961Z,101687.77
2019-02-20T05:04:19.001Z,101685.23
2019-02-20T05:06:48.015Z,101688.19
2019-02-20T05:09:17.368Z,101681.84
2019-02-20T05:11:46.646Z,101683.12
2019-02-20T05:14:15.708Z,101687.34
2019-02-20T05:16:45.056Z,101694.52
2019-02-20T05:19:14.110Z,101680.58
2019-02-20T05:21:43.244Z,101684.80
2019-02-20T05:24:12.273Z,101669.59
2019-02-20T05:26:41.266Z,101673.39
2019-02-20T05:29:10.335Z,101672.97
2019-02-20T05:31:39.354Z,101685.21
2019-02-20T05:34:08.410Z,101678.02
2019-02-20T05:36:37.296Z,101680.96
2019-02-20T05:39:07.375Z,101686.88
2019-02-20T05:41:36.392Z,101684.77
2019-02-20T05:44:05.461Z,101683.92
2019-02-20T05:46:34.476Z,101684.77
2019-02-20T05:49:03.491Z,101690.66
2019-02-20T05:51:32.738Z,101690.66
2019-02-20T05:54:01.744Z,101694.45
2019-02-20T05:56:30.766Z,101701.17
2019-02-20T05:58:59.767Z,101691.88
2019-02-20T06:01:28.784Z,101694.83
2019-02-20T06:03:57.844Z,101699.88
2019-02-20T06:06:26.839Z,101691.00
2019-02-20T06:08:55.767Z,101695.23
2019-02-20T06:11:24.746Z,101690.59
2019-02-20T06:13:53.837Z,101695.23
2019-02-20T06:16:23.130Z,101697.73
2019-02-20T06:18:52.216Z,101699.81
2019-02-20T06:21:21.278Z,101699.84
2019-02-20T06:23:50.295Z,101712.08
2019-02-20T06:26:19.639Z,101709.09
2019-02-20T06:28:49.052Z,101711.62
2019-02-20T06:31:18.090Z,101709.06
2019-02-20T06:33:47.102Z,101717.07
2019-02-20T06:36:16.230Z,101715.80
2019-02-20T06:38:45.270Z,101725.91
2019-02-20T06:41:14.334Z,101726.75
2019-02-20T06:43:43.356Z,101726.31
2019-02-20T06:46:12.387Z,101717.41
2019-02-20T06:48:41.445Z,101714.84
2019-02-20T06:51:10.453Z,101713.62
2019-02-20T06:53:39.991Z,101725.86
2019-02-20T06:56:09.000Z,101719.56
2019-02-20T06:58:38.052Z,101740.28
2019-02-20T07:01:07.070Z,101738.18
2019-02-20T07:03:36.122Z,101735.21
2019-02-20T07:06:50.033Z,101740.76
2019-02-20T07:10:06.428Z,101739.09
2019-02-20T07:13:00.528Z,101744.60
2019-02-20T07:15:53.540Z,101751.41
2019-02-20T07:18:54.354Z,101760.78
2019-02-20T07:22:09.621Z,101767.54
2019-02-20T07:24:53.059Z,101777.30
2019-02-20T07:27:43.571Z,101781.98
2019-02-20T07:30:12.582Z,101785.78
2019-02-20T07:32:41.653Z,101787.48
2019-02-20T07:35:11.518Z,101793.83
2019-02-20T07:37:40.889Z,101794.70
2019-02-20T07:40:11.898Z,101797.69
2019-02-20T07:42:40.966Z,101805.72
2019-02-20T07:45:14.766Z,101809.55
2019-02-20T07:47:44.157Z,101804.92
2019-02-20T07:50:16.025Z,101803.70
2019-02-20T07:52:45.354Z,101799.89
2019-02-20T07:55:14.446Z,101798.99
2019-02-20T07:57:43.817Z,101805.34
2019-02-20T08:00:14.545Z,101803.23
2019-02-20T08:02:43.557Z,101810.04
2019-02-20T08:05:12.297Z,101815.92
2019-02-20T08:07:41.313Z,101823.16
2019-02-20T08:10:11.618Z,101820.22
2019-02-20T08:12:40.631Z,101827.83
2019-02-20T08:15:11.325Z,101826.14
2019-02-20T08:17:40.401Z,101830.37
2019-02-20T08:20:10.746Z,101823.19
2019-02-20T08:22:39.803Z,101837.16
2019-02-20T08:25:09.460Z,101834.61
2019-02-20T08:27:38.506Z,101831.66
2019-02-20T08:30:13.685Z,101840.55
2019-02-20T08:32:42.713Z,101843.92
2019-02-20T08:35:12.040Z,101857.07
2019-02-20T08:37:41.126Z,101856.67
2019-02-20T08:40:12.728Z,101858.33
2019-02-20T08:42:41.749Z,101863.41
2019-02-20T08:45:11.221Z,101864.22
2019-02-20T08:47:40.286Z,101866.34
2019-02-20T08:50:10.374Z,101873.98
2019-02-20T08:52:39.390Z,101876.50
2019-02-20T08:55:08.764Z,101875.22
2019-02-20T08:57:37.693Z,101877.34
2019-02-20T09:00:08.352Z,101882.41
2019-02-20T09:02:37.410Z,101881.98
2019-02-20T09:05:07.223Z,101877.73
2019-02-20T09:07:36.282Z,101883.27
2019-02-20T09:10:05.947Z,101886.19
2019-02-20T09:12:34.995Z,101889.59
2019-02-20T09:15:04.082Z,101891.70
2019-02-20T09:17:33.645Z,101890.83
2019-02-20T09:20:02.746Z,101886.20
2019-02-20T09:22:31.763Z,101894.66
2019-02-20T09:25:00.836Z,101899.70
2019-02-20T09:27:29.936Z,101891.19
2019-02-20T09:29:58.947Z,101909.47
2019-02-20T09:32:27.982Z,101911.55
2019-02-20T09:34:57.036Z,101909.84
2019-02-20T09:37:25.982Z,101912.36
2019-02-20T09:39:55.398Z,101916.64
2019-02-20T09:42:24.410Z,101909.39
2019-02-20T09:44:53.353Z,101910.28
2019-02-20T09:47:22.777Z,101913.67
2019-02-20T09:49:51.798Z,101917.47
2019-02-20T09:52:20.865Z,101916.09
2019-02-20T09:54:50.325Z,101920.32
2019-02-20T09:57:19.415Z,101935.98
2019-02-20T09:59:48.447Z,101935.14
2019-02-20T10:02:17.496Z,101930.89
2019-02-20T10:04:47.235Z,101930.09
2019-02-20T10:07:16.265Z,101937.33
2019-02-20T10:09:45.622Z,101942.81
2019-02-20T10:12:14.577Z,101937.73
2019-02-20T10:14:43.639Z,101945.41
2019-02-20T10:17:12.654Z,101945.01
2019-02-20T10:19:41.993Z,101951.37
2019-02-20T10:22:11.097Z,101945.80
2019-02-20T10:24:40.140Z,101953.00
2019-02-20T10:27:09.208Z,101956.39
2019-02-20T10:29:38.325Z,101958.10
2019-02-20T10:32:07.292Z,101958.51
2019-02-20T10:34:36.241Z,101958.50
2019-02-20T10:37:05.300Z,101959.85
2019-02-20T10:39:34.355Z,101964.45
2019-02-20T10:42:03.378Z,101959.28
2019-02-20T10:44:32.743Z,101963.09
2019-02-20T10:47:01.749Z,101972.40
2019-02-20T10:49:31.181Z,101971.62
2019-02-20T10:52:00.491Z,101978.42
2019-02-20T10:54:29.433Z,101971.61
2019-02-20T10:56:58.874Z,101977.50
2019-02-20T10:59:27.902Z,101981.30
2019-02-20T11:01:56.964Z,101978.79
2019-02-20T11:04:25.978Z,101986.88
2019-02-20T11:06:54.951Z,101983.45
2019-02-20T11:09:24.238Z,101990.23
2019-02-20T11:11:54.511Z,101992.80
2019-02-20T11:14:23.594Z,101999.19
2019-02-20T11:16:52.946Z,101992.31
2019-02-20T11:19:22.343Z,101995.31
2019-02-20T11:21:51.449Z,102004.72
2019-02-20T11:24:20.466Z,101997.42
2019-02-20T11:26:54.787Z,102001.73
2019-02-20T11:29:20.449Z,102000.02
2019-02-20T11:31:49.458Z,101997.45
2019-02-20T11:34:19.832Z,101998.27
2019-02-20T11:36:49.535Z,101997.91
2019-02-20T11:39:18.581Z,102000.50
2019-02-20T11:41:47.669Z,101995.39
2019-02-20T11:44:20.969Z,101988.17
2019-02-20T11:46:47.394Z,101980.12
2019-02-20T11:49:16.674Z,101994.55
2019-02-20T11:51:45.746Z,101995.03
2019-02-20T11:54:14.793Z,101989.97
2019-02-20T11:56:43.842Z,101989.58
2019-02-20T11:59:12.860Z,101998.05
2019-02-20T12:01:41.921Z,101992.95
2019-02-20T12:04:11.254Z,101995.52
2019-02-20T12:06:40.275Z,101998.07
2019-02-20T12:09:10.518Z,102003.62
2019-02-20T12:11:39.593Z,102003.19
2019-02-20T12:14:08.605Z,102009.54
2019-02-20T12:16:37.674Z,102003.19
2019-02-20T12:19:06.691Z,102009.98
2019-02-20T12:21:35.991Z,102015.45
2019-02-20T12:24:06.224Z,102015.47
2019-02-20T12:26:35.504Z,102011.62
2019-02-20T12:29:04.500Z,102014.61
2019-02-20T12:31:33.609Z,102010.74
2019-02-20T12:34:02.663Z,102006.04
2019-02-20T12:36:31.638Z,102011.98
2019-02-20T12:39:00.955Z,102008.13
2019-02-20T12:41:30.334Z,102011.54
2019-02-20T12:43:59.434Z,102012.80
2019-02-20T12:46:28.450Z,102013.63
2019-02-20T12:48:57.525Z,102014.91
2019-02-20T12:51:26.476Z,102014.48
2019-02-20T12:53:55.495Z,102014.95
2019-02-20T12:56:24.559Z,102024.30
2019-02-20T12:58:53.946Z,102024.32
2019-02-20T13:01:22.953Z,102023.06
2019-02-20T13:03:51.959Z,102022.23
2019-02-20T13:06:20.969Z,102030.30
2019-02-20T13:08:50.056Z,102029.86
2019-02-20T13:11:19.081Z,102029.02
2019-02-20T13:13:49.105Z,102029.43
2019-02-20T13:16:18.276Z,102020.91
2019-02-20T13:18:47.338Z,102017.45
2019-02-20T13:21:16.431Z,102019.17
2019-02-20T13:23:45.568Z,102020.84
2019-02-20T13:26:14.539Z,102017.03
2019-02-20T13:28:43.545Z,102020.45
2019-02-20T13:31:12.597Z,102021.31
2019-02-20T13:33:41.654Z,102019.67
2019-02-20T13:36:10.934Z,102013.31
2019-02-20T13:38:39.945Z,102012.91
2019-02-20T13:41:09.412Z,102009.95
2019-02-20T13:43:38.466Z,102016.31
2019-02-20T13:46:07.525Z,102014.18
2019-02-20T13:48:36.542Z,102008.28
2019-02-20T13:51:05.563Z,102015.91
2019-02-20T13:53:34.642Z,102007.86
2019-02-20T13:56:03.691Z,102006.59
2019-02-20T13:58:32.753Z,102009.14
2019-02-20T14:01:01.762Z,102007.86
2019-02-20T14:03:30.839Z,102009.14
2019-02-20T14:05:59.853Z,102006.60
2019-02-20T14:08:28.907Z,102015.91
2019-02-20T14:10:57.995Z,102017.58
2019-02-20T14:13:27.489Z,102017.58
2019-02-20T14:15:56.444Z,102018.42
2019-02-20T14:18:25.458Z,102015.45
2019-02-20T14:20:54.525Z,102013.77
2019-02-20T14:23:23.635Z,102013.77
2019-02-20T14:25:52.710Z,102011.20
2019-02-20T14:28:21.758Z,102009.50
2019-02-20T14:30:50.802Z,102014.18
2019-02-20T14:33:19.870Z,102008.25
2019-02-20T14:35:48.950Z,102006.55
2019-02-20T14:38:17.974Z,102013.36
2019-02-20T14:40:47.186Z,102008.69
2019-02-20T14:43:16.257Z,102022.67
2019-02-20T14:45:46.212Z,102020.56
2019-02-20T14:48:15.210Z,102011.67
2019-02-20T14:50:44.296Z,102015.89
2019-02-20T14:53:13.317Z,102022.27
2019-02-20T14:55:42.333Z,102012.53
2019-02-20T14:58:11.393Z,102019.31
2019-02-20T15:00:40.782Z,102022.70
2019-02-20T15:03:10.003Z,102011.67
2019-02-20T15:05:39.266Z,102016.78
2019-02-20T15:08:08.287Z,102018.03
2019-02-20T15:10:37.341Z,102022.27
2019-02-20T15:13:06.352Z,102020.16
2019-02-20T15:15:35.423Z,102022.70
2019-02-20T15:18:04.701Z,102020.56
2019-02-20T15:20:35.507Z,102020.97
2019-02-20T15:23:04.510Z,102020.55
2019-02-20T15:25:33.560Z,102026.05
2019-02-20T15:28:02.607Z,102020.09
2019-02-20T15:30:33.237Z,102014.59
2019-02-20T15:33:02.630Z,102015.41
2019-02-20T15:35:31.645Z,102017.53
2019-02-20T15:38:00.707Z,102022.20
2019-02-20T15:40:29.724Z,102018.43
2019-02-20T15:42:58.738Z,102023.95
2019-02-20T15:45:27.828Z,102022.70
2019-02-20T15:47:57.275Z,102015.93
2019-02-20T15:50:26.297Z,102023.56
2019-02-20T15:52:55.338Z,102016.77
2019-02-20T15:55:24.374Z,102019.73
2019-02-20T15:57:53.464Z,102024.39
2019-02-20T16:00:24.118Z,102025.67
2019-02-20T16:02:53.378Z,102018.04
2019-02-20T16:05:22.438Z,102015.92
2019-02-20T16:07:53.449Z,102020.58
2019-02-20T16:10:22.620Z,102026.09
2019-02-20T16:12:51.632Z,102030.33
2019-02-20T16:15:20.646Z,102026.52
2019-02-20T16:17:50.021Z,102034.56
2019-02-20T16:20:19.087Z,102028.62
2019-02-20T16:22:48.154Z,102032.02
2019-02-20T16:25:17.210Z,102026.93
2019-02-20T16:27:47.882Z,102021.84
2019-02-20T16:30:17.032Z,102017.19
2019-02-20T16:32:46.396Z,102022.27
2019-02-20T16:35:15.548Z,102021.00
2019-02-20T16:37:44.946Z,102018.03
2019-02-20T16:40:14.140Z,102020.99
2019-02-20T16:42:43.200Z,102016.77
2019-02-20T16:45:31.384Z,102023.53
2019-02-20T16:48:00.429Z,102016.75
2019-02-20T16:50:29.489Z,102027.34
2019-02-20T16:52:58.497Z,102023.53
2019-02-20T16:55:27.586Z,102026.07
2019-02-20T16:57:57.256Z,102026.91
2019-02-20T17:00:26.495Z,102030.30
2019-02-20T17:02:55.718Z,102034.11
2019-02-20T17:05:24.895Z,102030.26
2019-02-20T17:07:53.933Z,102026.48
2019-02-20T17:10:22.945Z,102035.38
2019-02-20T17:12:52.016Z,102028.98
2019-02-20T17:15:21.021Z,102035.38
2019-02-20T17:17:50.754Z,102031.94
2019-02-20T17:20:19.964Z,102034.49
2019-02-20T17:22:48.993Z,102034.06
2019-02-20T17:25:19.443Z,102032.79
2019-02-20T17:27:48.481Z,102037.44
2019-02-20T17:30:17.793Z,102039.57
2019-02-20T17:32:47.357Z,102040.41
2019-02-20T17:35:17.294Z,102038.31
2019-02-20T17:37:46.451Z,102043.80
2019-02-20T17:40:16.660Z,102046.77
2019-02-20T17:42:45.718Z,102051.00
2019-02-20T17:45:15.853Z,102036.17
2019-02-20T17:47:45.254Z,102033.65
2019-02-20T17:50:15.246Z,102043.81
2019-02-20T17:52:44.267Z,102043.38
2019-02-20T17:55:13.328Z,102038.30
2019-02-20T17:57:42.390Z,102042.95
2019-02-20T18:00:12.530Z,102037.44
2019-02-20T18:02:41.599Z,102041.27
2019-02-20T18:05:10.795Z,102042.11
2019-02-20T18:07:48.376Z,102043.84
2019-02-20T18:10:10.735Z,102041.27
2019-02-20T18:12:39.867Z,102034.92
2019-02-20T18:15:09.041Z,102037.07
2019-02-20T18:17:38.472Z,102036.18
2019-02-20T18:20:07.804Z,102039.57
2019-02-20T18:22:37.150Z,102042.95
2019-02-20T18:25:06.447Z,102040.46
2019-02-20T18:27:35.511Z,102048.47
2019-02-20T18:30:04.658Z,102044.66
2019-02-20T18:32:33.758Z,102040.84
2019-02-20T18:35:03.304Z,102042.09
2019-02-20T18:37:32.360Z,102045.06
2019-02-20T18:40:01.374Z,102046.77
2019-02-20T18:42:30.486Z,102045.07
2019-02-20T18:44:59.513Z,102055.22
2019-02-20T18:47:28.593Z,102053.52
2019-02-20T18:49:57.610Z,102054.80
2019-02-20T18:52:26.999Z,102051.00
2019-02-20T18:55:05.358Z,102053.96
2019-02-20T18:57:26.802Z,102052.70
2019-02-20T18:59:55.879Z,102053.97
2019-02-20T19:02:24.950Z,102061.59
2019-02-20T19:04:54.005Z,102058.24
2019-02-20T19:07:23.078Z,102057.36
2019-02-20T19:09:52.163Z,102066.67
2019-02-20T19:12:54.246Z,102070.53
2019-02-20T19:15:37.974Z,102069.69
2019-02-20T19:18:25.323Z,102079.86
2019-02-20T19:21:03.300Z,102074.77
2019-02-20T19:24:18.799Z,102074.34
2019-02-20T19:27:24.605Z,102076.88
2019-02-20T19:30:31.349Z,102068.84
2019-02-20T19:33:31.684Z,102073.07
2019-02-20T19:36:34.445Z,102071.80
2019-02-20T19:39:40.280Z,102072.23
2019-02-20T19:43:00.128Z,102072.61
2019-02-20T19:46:03.420Z,102064.56
2019-02-20T19:49:22.358Z,102069.64
2019-02-20T19:52:46.797Z,102059.91
2019-02-20T19:56:07.580Z,102060.36
2019-02-20T19:59:23.424Z,102059.05
2019-02-20T20:02:27.790Z,102069.22
2019-02-20T20:05:52.273Z,102066.67
2019-02-20T20:09:01.899Z,102068.36
2019-02-20T20:11:44.634Z,102069.22
2019-02-20T20:15:12.561Z,102071.38
2019-02-20T20:18:44.049Z,102065.88
2019-02-20T20:21:30.452Z,102068.41
2019-02-20T20:24:51.030Z,102070.95
2019-02-20T20:27:50.974Z,102066.72
2019-02-20T20:30:52.102Z,102066.73
2019-02-20T20:33:35.333Z,102064.19
2019-02-20T20:36:41.531Z,102062.07
2019-02-20T20:39:41.751Z,102070.06
2019-02-20T20:42:51.945Z,102064.19
2019-02-20T20:46:14.406Z,102071.80
2019-02-20T20:49:32.762Z,102073.91
2019-02-20T20:52:41.912Z,102062.45
2019-02-20T20:56:01.191Z,102070.53
2019-02-20T20:58:42.245Z,102066.30
2019-02-20T21:01:50.552Z,102065.83
2019-02-20T21:04:58.251Z,102066.30
2019-02-20T21:07:36.909Z,102068.37
2019-02-20T21:10:49.058Z,102078.10
2019-02-20T21:14:26.402Z,102073.87
2019-02-20T21:17:40.967Z,102073.49
2019-02-20T21:20:34.658Z,102073.87
2019-02-20T21:23:39.385Z,102067.52
2019-02-20T21:26:35.414Z,102074.77
2019-02-20T21:29:28.168Z,102076.41
2019-02-20T21:32:26.036Z,102070.06
2019-02-20T21:35:41.391Z,102077.30
2019-02-20T21:38:43.062Z,102078.52
2019-02-20T21:41:39.495Z,102080.66
2019-02-20T21:44:47.374Z,102085.35
2019-02-20T21:48:07.257Z,102077.69
2019-02-20T21:51:11.449Z,102079.80
2019-02-20T21:54:27.800Z,102089.55
2019-02-20T21:57:06.646Z,102087.42
2019-02-20T22:00:22.921Z,102085.31
2019-02-20T22:03:45.015Z,102083.66
2019-02-20T22:06:24.786Z,102082.77
2019-02-20T22:09:16.144Z,102079.42
2019-02-20T22:12:03.038Z,102077.30
2019-02-20T22:14:54.172Z,102070.95
2019-02-20T22:18:03.578Z,102071.38
2019-02-20T22:21:07.128Z,102070.91
2019-02-20T22:23:59.479Z,102068.38
2019-02-20T22:27:20.377Z,102063.34
2019-02-20T22:30:43.074Z,102051.86
2019-02-20T22:34:02.314Z,102053.96
2019-02-20T22:37:21.315Z,102056.50
2019-02-20T22:40:23.212Z,102050.16
2019-02-20T22:43:08.394Z,102043.38
2019-02-20T22:45:53.258Z,102045.49
2019-02-20T22:48:57.139Z,102046.77
2019-02-20T22:51:58.142Z,102043.37
2019-02-20T22:55:10.329Z,102046.34
2019-02-20T22:58:03.946Z,102044.20
2019-02-20T23:01:05.174Z,102041.61
2019-02-20T23:04:10.646Z,102042.87
2019-02-20T23:07:20.985Z,102042.43
2019-02-20T23:10:22.866Z,102045.39
2019-02-20T23:13:31.729Z,102042.00
2019-02-20T23:16:00.750Z,102052.16
2019-02-20T23:18:29.702Z,102041.58
2019-02-20T23:20:58.762Z,102039.05
2019-02-20T23:23:27.829Z,102047.09
2019-02-20T23:25:56.927Z,102042.43
2019-02-20T23:28:25.968Z,102042.41
2019-02-20T23:30:55.023Z,102048.78
2019-02-20T23:33:23.987Z,102047.52
2019-02-20T23:35:52.967Z,102048.36
2019-02-20T23:38:22.001Z,102049.63
2019-02-20T23:40:50.993Z,102052.16
2019-02-20T23:43:19.925Z,102052.61
2019-02-20T23:45:48.979Z,102056.41
2019-02-20T23:48:18.066Z,102058.95
2019-02-20T23:50:47.064Z,102051.77
2019-02-20T23:53:18.593Z,102048.80
2019-02-20T23:55:46.858Z,102051.34
2019-02-20T23:58:15.797Z,102056.06
